createdAt,value
2023-09-12T00:00:43.996Z,76.59
2023-09-12T00:01:45.928Z,76.72
2023-09-12T00:02:47.754Z,76.83
2023-09-12T00:03:49.609Z,76.61
2023-09-12T00:04:52.168Z,76.65
2023-09-12T00:05:58.250Z,76.62
2023-09-12T00:07:00.439Z,76.50
2023-09-12T00:08:02.453Z,76.53
2023-09-12T00:09:06.880Z,76.77
2023-09-12T00:10:08.757Z,77.03
2023-09-12T00:11:12.716Z,77.32
2023-09-12T00:12:17.628Z,77.22
2023-09-12T00:13:19.400Z,77.26
2023-09-12T00:14:21.165Z,77.37
2023-09-12T00:15:23.337Z,77.26
2023-09-12T00:16:25.294Z,77.09
2023-09-12T00:17:28.254Z,76.88
2023-09-12T00:18:30.087Z,76.94
2023-09-12T00:19:32.299Z,76.90
2023-09-12T00:20:34.284Z,76.86
2023-09-12T00:21:36.100Z,76.91
2023-09-12T00:22:37.989Z,77.26
2023-09-12T00:23:39.852Z,77.21
2023-09-12T00:24:41.652Z,77.33
2023-09-12T00:25:43.725Z,77.24
2023-09-12T00:26:45.427Z,77.24
2023-09-12T00:27:47.340Z,77.10
2023-09-12T00:28:49.080Z,76.98
2023-09-12T00:29:50.779Z,76.98
2023-09-12T00:30:53.005Z,76.94
2023-09-12T00:31:55.141Z,76.79
2023-09-12T00:32:57.012Z,76.97
2023-09-12T00:33:58.927Z,77.36
2023-09-12T00:35:00.721Z,77.75
2023-09-12T00:36:02.521Z,77.96
2023-09-12T00:37:04.388Z,77.87
2023-09-12T00:38:07.564Z,77.81
2023-09-12T00:39:09.482Z,77.88
2023-09-12T00:40:11.955Z,77.60
2023-09-12T00:41:13.722Z,77.65
2023-09-12T00:42:15.494Z,77.51
2023-09-12T00:43:18.456Z,77.43
2023-09-12T00:44:20.312Z,77.25
2023-09-12T00:45:22.353Z,77.31
2023-09-12T00:46:24.942Z,77.32
2023-09-12T00:47:27.630Z,77.26
2023-09-12T00:48:30.106Z,77.39
2023-09-12T00:49:32.291Z,77.45
2023-09-12T00:50:35.127Z,77.39
2023-09-12T00:51:38.005Z,77.30
2023-09-12T00:52:39.884Z,77.21
2023-09-12T00:53:41.685Z,77.28
2023-09-12T00:54:43.562Z,77.14
2023-09-12T00:55:51.300Z,77.25
2023-09-12T00:56:53.082Z,77.18
2023-09-12T00:57:54.890Z,77.22
2023-09-12T00:58:57.908Z,77.09
2023-09-12T00:59:59.916Z,77.15
2023-09-12T01:01:01.759Z,77.04
2023-09-12T01:02:04.211Z,77.15
2023-09-12T01:03:06.568Z,77.16
2023-09-12T01:04:20.464Z,77.13
2023-09-12T01:05:30.341Z,76.98
2023-09-12T01:06:33.260Z,77.11
2023-09-12T01:07:35.682Z,76.97
2023-09-12T01:08:39.483Z,77.17
2023-09-12T01:09:41.879Z,77.10
2023-09-12T01:10:47.377Z,77.04
2023-09-12T01:11:49.615Z,77.04
2023-09-12T01:12:51.695Z,77.05
2023-09-12T01:13:53.442Z,77.12
2023-09-12T01:14:55.269Z,77.05
2023-09-12T01:15:57.247Z,77.01
2023-09-12T01:16:59.685Z,76.97
2023-09-12T01:18:01.617Z,77.02
2023-09-12T01:19:05.138Z,77.05
2023-09-12T01:20:08.828Z,77.05
2023-09-12T01:21:13.730Z,77.03
2023-09-12T01:22:27.973Z,77.14
2023-09-12T01:23:48.454Z,77.04
2023-09-12T01:24:52.879Z,77.23
2023-09-12T01:26:06.903Z,77.32
2023-09-12T01:27:20.805Z,77.28
2023-09-12T01:28:24.804Z,77.12
2023-09-12T01:29:27.492Z,77.19
2023-09-12T01:30:29.394Z,77.09
2023-09-12T01:31:31.505Z,76.98
2023-09-12T01:32:34.910Z,77.02
2023-09-12T01:33:36.818Z,77.29
2023-09-12T01:34:38.647Z,77.31
2023-09-12T01:35:40.467Z,77.05
2023-09-12T01:36:42.457Z,77.17
2023-09-12T01:37:44.278Z,77.50
2023-09-12T01:38:46.393Z,77.45
2023-09-12T01:39:48.615Z,77.63
2023-09-12T01:40:52.021Z,77.62
2023-09-12T01:41:54.372Z,77.63
2023-09-12T01:42:57.420Z,77.71
2023-09-12T01:44:00.554Z,77.52
2023-09-12T01:45:02.922Z,77.44
2023-09-12T01:46:05.008Z,77.30
2023-09-12T01:47:07.326Z,77.52
2023-09-12T01:48:09.391Z,77.48
2023-09-12T01:49:11.639Z,77.44
2023-09-12T01:50:14.541Z,77.54
2023-09-12T01:51:17.037Z,77.43
2023-09-12T01:52:19.622Z,77.47
2023-09-12T01:53:21.736Z,77.43
2023-09-12T01:54:24.533Z,77.24
2023-09-12T01:55:26.957Z,77.26
2023-09-12T01:56:29.381Z,77.21
2023-09-12T01:57:32.049Z,77.15
2023-09-12T01:58:34.967Z,76.88
2023-09-12T01:59:36.762Z,76.84
2023-09-12T02:00:39.581Z,76.98
2023-09-12T02:01:42.957Z,76.81
2023-09-12T02:02:44.816Z,77.22
2023-09-12T02:03:46.965Z,77.29
2023-09-12T02:05:06.944Z,77.43
2023-09-12T02:06:08.821Z,77.29
2023-09-12T02:07:10.721Z,77.30
2023-09-12T02:08:12.478Z,77.29
2023-09-12T02:09:17.436Z,77.25
2023-09-12T02:10:19.528Z,77.26
2023-09-12T02:11:21.347Z,77.57
2023-09-12T02:12:23.308Z,77.51
2023-09-12T02:13:25.131Z,77.44
2023-09-12T02:14:26.895Z,77.67
2023-09-12T02:15:28.775Z,77.69
2023-09-12T02:16:31.320Z,77.98
2023-09-12T02:17:33.384Z,77.76
2023-09-12T02:18:35.563Z,77.60
2023-09-12T02:19:37.335Z,77.60
2023-09-12T02:20:40.396Z,77.70
2023-09-12T02:21:43.256Z,77.49
2023-09-12T02:22:45.155Z,77.43
2023-09-12T02:23:47.016Z,77.42
2023-09-12T02:24:48.726Z,77.41
2023-09-12T02:25:50.609Z,77.40
2023-09-12T02:26:58.846Z,77.28
2023-09-12T02:28:00.680Z,77.30
2023-09-12T02:29:02.455Z,77.36
2023-09-12T02:30:04.607Z,77.35
2023-09-12T02:31:15.527Z,77.68
2023-09-12T02:32:17.316Z,77.90
2023-09-12T02:33:19.844Z,77.63
2023-09-12T02:34:21.948Z,77.62
2023-09-12T02:35:23.699Z,78.56
2023-09-12T02:36:26.285Z,78.28
2023-09-12T02:37:28.044Z,78.12
2023-09-12T02:38:29.841Z,78.00
2023-09-12T02:39:31.995Z,78.16
2023-09-12T02:40:33.913Z,77.76
2023-09-12T02:41:35.759Z,77.84
2023-09-12T02:42:37.725Z,77.92
2023-09-12T02:43:39.629Z,77.85
2023-09-12T02:44:41.484Z,77.96
2023-09-12T02:45:43.958Z,77.73
2023-09-12T02:46:46.033Z,77.98
2023-09-12T02:47:47.905Z,77.86
2023-09-12T02:48:49.857Z,77.97
2023-09-12T02:49:51.819Z,78.23
2023-09-12T02:50:53.606Z,78.70
2023-09-12T02:51:55.379Z,78.29
2023-09-12T02:52:57.103Z,78.41
2023-09-12T02:53:58.845Z,78.46
2023-09-12T02:55:00.673Z,78.30
2023-09-12T02:56:03.223Z,78.10
2023-09-12T02:57:05.164Z,78.13
2023-09-12T02:58:07.023Z,78.13
2023-09-12T02:59:08.760Z,78.10
2023-09-12T03:00:12.800Z,77.91
2023-09-12T03:01:21.531Z,77.91
2023-09-12T03:02:23.483Z,77.83
2023-09-12T03:03:25.507Z,77.88
2023-09-12T03:04:29.860Z,77.94
2023-09-12T03:05:31.730Z,77.61
2023-09-12T03:06:34.253Z,77.67
2023-09-12T03:07:36.116Z,77.77
2023-09-12T03:08:37.849Z,77.76
2023-09-12T03:09:39.723Z,77.92
2023-09-12T03:10:41.620Z,77.76
2023-09-12T03:11:43.391Z,78.08
2023-09-12T03:12:45.172Z,78.20
2023-09-12T03:13:47.877Z,77.91
2023-09-12T03:14:49.556Z,78.05
2023-09-12T03:15:51.483Z,78.00
2023-09-12T03:16:53.275Z,78.10
2023-09-12T03:17:55.204Z,78.04
2023-09-12T03:18:56.987Z,77.86
2023-09-12T03:19:58.815Z,77.80
2023-09-12T03:21:01.942Z,77.71
2023-09-12T03:22:03.867Z,77.90
2023-09-12T03:23:05.686Z,77.65
2023-09-12T03:24:07.604Z,77.72
2023-09-12T03:25:09.493Z,77.88
2023-09-12T03:26:11.490Z,77.78
2023-09-12T03:27:13.294Z,77.42
2023-09-12T03:28:15.108Z,77.82
2023-09-12T03:29:16.829Z,77.75
2023-09-12T03:30:19.103Z,77.80
2023-09-12T03:31:21.057Z,77.77
2023-09-12T03:32:22.989Z,77.79
2023-09-12T03:33:24.834Z,77.69
2023-09-12T03:34:26.782Z,77.89
2023-09-12T03:35:29.896Z,77.85
2023-09-12T03:36:31.757Z,77.87
2023-09-12T03:37:33.607Z,77.83
2023-09-12T03:38:35.954Z,78.20
2023-09-12T03:39:37.884Z,78.17
2023-09-12T03:40:39.712Z,78.08
2023-09-12T03:41:41.556Z,78.04
2023-09-12T03:42:43.381Z,77.87
2023-09-12T03:43:45.115Z,78.10
2023-09-12T03:44:46.856Z,78.08
2023-09-12T03:45:48.793Z,77.84
2023-09-12T03:46:50.734Z,78.34
2023-09-12T03:47:52.831Z,77.87
2023-09-12T03:48:54.689Z,77.95
2023-09-12T03:49:56.548Z,77.97
2023-09-12T03:50:58.320Z,77.97
2023-09-12T03:52:00.135Z,78.21
2023-09-12T03:53:01.868Z,78.05
2023-09-12T03:54:04.086Z,78.14
2023-09-12T03:55:06.366Z,78.31
2023-09-12T03:56:09.605Z,78.34
2023-09-12T03:57:11.459Z,78.24
2023-09-12T03:58:13.274Z,78.27
2023-09-12T03:59:15.063Z,77.98
2023-09-12T04:00:17.105Z,78.15
2023-09-12T04:01:18.852Z,78.14
2023-09-12T04:02:20.852Z,78.01
2023-09-12T04:03:22.751Z,77.98
2023-09-12T04:04:25.060Z,77.88
2023-09-12T04:05:27.406Z,78.04
2023-09-12T04:06:29.300Z,78.04
2023-09-12T04:07:31.040Z,78.10
2023-09-12T04:08:33.803Z,78.14
2023-09-12T04:09:35.569Z,78.28
2023-09-12T04:10:37.786Z,78.35
2023-09-12T04:11:47.218Z,78.27
2023-09-12T04:12:49.620Z,78.40
2023-09-12T04:13:51.491Z,78.59
2023-09-12T04:14:53.923Z,78.82
2023-09-12T04:15:56.312Z,78.75
2023-09-12T04:16:58.503Z,78.68
2023-09-12T04:18:00.398Z,78.97
2023-09-12T04:19:02.234Z,79.14
2023-09-12T04:20:06.082Z,78.84
2023-09-12T04:21:08.114Z,78.79
2023-09-12T04:22:09.913Z,78.44
2023-09-12T04:23:11.718Z,78.91
2023-09-12T04:24:13.477Z,78.81
2023-09-12T04:25:15.359Z,78.97
2023-09-12T04:26:17.193Z,78.91
2023-09-12T04:27:18.994Z,78.69
2023-09-12T04:28:20.834Z,78.87
2023-09-12T04:29:22.926Z,78.76
2023-09-12T04:30:25.037Z,78.75
2023-09-12T04:31:26.936Z,79.04
2023-09-12T04:32:28.717Z,78.95
2023-09-12T04:33:30.642Z,79.25
2023-09-12T04:34:32.598Z,78.86
2023-09-12T04:35:34.844Z,78.87
2023-09-12T04:36:37.005Z,78.88
2023-09-12T04:37:38.891Z,78.91
2023-09-12T04:38:40.696Z,78.56
2023-09-12T04:39:42.510Z,78.70
2023-09-12T04:40:44.400Z,78.63
2023-09-12T04:41:46.137Z,78.82
2023-09-12T04:42:47.921Z,78.48
2023-09-12T04:43:49.678Z,78.61
2023-09-12T04:44:51.563Z,78.65
2023-09-12T04:45:53.432Z,78.72
2023-09-12T04:46:55.420Z,78.76
2023-09-12T04:47:57.232Z,78.53
2023-09-12T04:48:59.122Z,78.59
2023-09-12T04:50:02.640Z,78.58
2023-09-12T04:51:04.631Z,78.34
2023-09-12T04:52:06.652Z,78.62
2023-09-12T04:53:08.435Z,78.44
2023-09-12T04:54:10.261Z,78.59
2023-09-12T04:55:12.096Z,78.64
2023-09-12T04:56:14.294Z,78.48
2023-09-12T04:57:16.161Z,78.88
2023-09-12T04:58:17.928Z,78.92
2023-09-12T04:59:19.686Z,78.89
2023-09-12T05:00:21.636Z,79.04
2023-09-12T05:01:23.893Z,78.84
2023-09-12T05:02:26.991Z,79.04
2023-09-12T05:03:29.012Z,79.21
2023-09-12T05:04:30.849Z,79.27
2023-09-12T05:05:35.555Z,79.26
2023-09-12T05:06:37.473Z,79.25
2023-09-12T05:07:39.315Z,79.16
2023-09-12T05:08:41.398Z,78.91
2023-09-12T05:09:44.111Z,79.03
2023-09-12T05:10:46.131Z,79.18
2023-09-12T05:11:48.218Z,79.28
2023-09-12T05:12:50.158Z,79.14
2023-09-12T05:13:53.649Z,79.49
2023-09-12T05:14:55.930Z,79.81
2023-09-12T05:16:00.573Z,79.87
2023-09-12T05:17:03.141Z,79.79
2023-09-12T05:18:05.535Z,79.72
2023-09-12T05:19:07.354Z,79.81
2023-09-12T05:20:09.441Z,79.60
2023-09-12T05:21:11.549Z,79.59
2023-09-12T05:22:14.155Z,79.62
2023-09-12T05:23:15.939Z,79.68
2023-09-12T05:24:17.764Z,79.51
2023-09-12T05:25:19.553Z,79.64
2023-09-12T05:26:21.260Z,79.40
2023-09-12T05:27:23.043Z,79.75
2023-09-12T05:28:25.068Z,79.65
2023-09-12T05:29:26.809Z,79.96
2023-09-12T05:30:28.633Z,79.93
2023-09-12T05:31:30.461Z,80.29
2023-09-12T05:32:32.610Z,80.24
2023-09-12T05:33:34.465Z,80.56
2023-09-12T05:34:36.348Z,80.45
2023-09-12T05:35:38.883Z,80.22
2023-09-12T05:36:40.701Z,80.03
2023-09-12T05:37:42.755Z,80.04
2023-09-12T05:38:45.484Z,80.07
2023-09-12T05:39:48.062Z,80.21
2023-09-12T05:40:51.279Z,80.26
2023-09-12T05:41:53.022Z,80.24
2023-09-12T05:42:54.928Z,80.24
2023-09-12T05:43:57.009Z,80.44
2023-09-12T05:44:58.955Z,80.55
2023-09-12T05:46:00.734Z,80.54
2023-09-12T05:47:02.605Z,80.42
2023-09-12T05:48:04.624Z,80.55
2023-09-12T05:49:06.435Z,80.60
2023-09-12T05:50:08.554Z,80.63
2023-09-12T05:51:10.427Z,80.74
2023-09-12T05:52:12.548Z,80.50
2023-09-12T05:53:14.315Z,80.41
2023-09-12T05:54:16.956Z,80.56
2023-09-12T05:55:21.661Z,80.58
2023-09-12T05:56:23.524Z,80.52
2023-09-12T05:57:25.320Z,81.00
2023-09-12T05:58:27.218Z,80.99
2023-09-12T05:59:29.214Z,81.03
2023-09-12T06:00:31.022Z,80.91
2023-09-12T06:01:32.983Z,81.34
2023-09-12T06:02:34.967Z,81.30
2023-09-12T06:03:37.233Z,81.43
2023-09-12T06:04:39.459Z,81.99
2023-09-12T06:05:41.224Z,82.35
2023-09-12T06:06:43.053Z,81.88
2023-09-12T06:07:44.965Z,81.92
2023-09-12T06:08:46.699Z,81.96
2023-09-12T06:09:48.617Z,81.93
2023-09-12T06:10:50.825Z,81.86
2023-09-12T06:11:52.696Z,81.78
2023-09-12T06:12:54.556Z,81.62
2023-09-12T06:13:56.296Z,81.76
2023-09-12T06:14:58.077Z,82.29
2023-09-12T06:16:00.950Z,82.11
2023-09-12T06:17:03.006Z,82.35
2023-09-12T06:18:05.308Z,82.43
2023-09-12T06:19:07.096Z,82.40
2023-09-12T06:20:09.505Z,82.30
2023-09-12T06:21:11.275Z,83.09
2023-09-12T06:22:13.064Z,83.06
2023-09-12T06:23:14.767Z,83.39
2023-09-12T06:24:17.806Z,82.98
2023-09-12T06:25:19.707Z,83.11
2023-09-12T06:26:22.407Z,83.00
2023-09-12T06:27:24.328Z,83.14
2023-09-12T06:28:27.437Z,83.41
2023-09-12T06:29:29.229Z,83.47
2023-09-12T06:30:31.094Z,83.47
2023-09-12T06:31:33.337Z,83.41
2023-09-12T06:32:35.316Z,83.52
2023-09-12T06:33:37.192Z,83.54
2023-09-12T06:34:39.080Z,83.77
2023-09-12T06:35:42.525Z,84.00
2023-09-12T06:36:46.562Z,83.88
2023-09-12T06:37:48.628Z,83.99
2023-09-12T06:38:50.388Z,83.60
2023-09-12T06:39:52.848Z,83.50
2023-09-12T06:40:55.037Z,83.36
2023-09-12T06:41:59.009Z,83.24
2023-09-12T06:43:01.434Z,83.30
2023-09-12T06:44:05.493Z,84.23
2023-09-12T06:45:07.504Z,84.23
2023-09-12T06:46:09.335Z,84.28
2023-09-12T06:47:11.744Z,83.97
2023-09-12T06:48:13.579Z,84.83
2023-09-12T06:49:15.518Z,84.70
2023-09-12T06:50:17.695Z,84.70
2023-09-12T06:51:19.586Z,84.46
2023-09-12T06:52:21.451Z,84.92
2023-09-12T06:53:23.510Z,84.44
2023-09-12T06:54:25.278Z,84.53
2023-09-12T06:55:27.157Z,84.37
2023-09-12T06:56:29.102Z,84.32
2023-09-12T06:57:31.529Z,84.36
2023-09-12T06:58:33.837Z,84.41
2023-09-12T06:59:35.995Z,84.68
2023-09-12T07:00:37.859Z,84.96
2023-09-12T07:01:39.672Z,84.84
2023-09-12T07:02:41.499Z,84.57
2023-09-12T07:03:43.606Z,84.77
2023-09-12T07:04:45.598Z,84.97
2023-09-12T07:05:47.412Z,84.83
2023-09-12T07:06:49.300Z,85.11
2023-09-12T07:07:51.135Z,85.38
2023-09-12T07:08:53.101Z,86.31
2023-09-12T07:10:01.643Z,86.10
2023-09-12T07:11:10.158Z,86.29
2023-09-12T07:12:12.036Z,86.22
2023-09-12T07:13:13.841Z,86.06
2023-09-12T07:14:16.597Z,85.83
2023-09-12T07:15:18.480Z,85.51
2023-09-12T07:16:21.833Z,85.51
2023-09-12T07:17:23.725Z,85.26
2023-09-12T07:18:25.577Z,85.05
2023-09-12T07:19:27.348Z,84.89
2023-09-12T07:20:29.251Z,84.79
2023-09-12T07:21:31.114Z,84.57
2023-09-12T07:22:33.659Z,83.97
2023-09-12T07:23:35.379Z,84.03
2023-09-12T07:24:37.107Z,84.44
2023-09-12T07:25:42.831Z,84.39
2023-09-12T07:26:44.788Z,84.50
2023-09-12T07:27:46.657Z,84.47
2023-09-12T07:28:48.646Z,84.12
2023-09-12T07:29:50.437Z,84.01
2023-09-12T07:30:52.397Z,84.01
2023-09-12T07:31:55.064Z,83.59
2023-09-12T07:32:57.307Z,83.17
2023-09-12T07:33:59.094Z,83.17
2023-09-12T07:35:00.979Z,83.23
2023-09-12T07:36:04.149Z,83.36
2023-09-12T07:37:06.205Z,83.32
2023-09-12T07:38:08.168Z,83.32
2023-09-12T07:39:10.757Z,83.24
2023-09-12T07:40:12.699Z,83.53
2023-09-12T07:41:14.569Z,83.73
2023-09-12T07:42:16.560Z,82.81
2023-09-12T07:43:18.450Z,82.82
2023-09-12T07:44:20.178Z,83.22
2023-09-12T07:45:22.226Z,83.17
2023-09-12T07:46:24.027Z,83.33
2023-09-12T07:47:25.839Z,83.14
2023-09-12T07:48:27.992Z,83.26
2023-09-12T07:49:29.793Z,83.55
2023-09-12T07:50:31.534Z,82.79
2023-09-12T07:51:33.339Z,83.02
2023-09-12T07:52:35.830Z,83.07
2023-09-12T07:53:37.642Z,83.38
2023-09-12T07:54:39.340Z,82.99
2023-09-12T07:55:50.627Z,82.56
2023-09-12T07:56:52.447Z,82.35
2023-09-12T07:57:54.210Z,82.19
2023-09-12T07:58:57.013Z,82.04
2023-09-12T07:59:59.411Z,82.49
2023-09-12T08:01:05.525Z,81.02
2023-09-12T08:02:07.305Z,80.24
2023-09-12T08:03:10.488Z,80.25
2023-09-12T08:04:12.467Z,80.21
2023-09-12T08:05:14.311Z,80.35
2023-09-12T08:06:16.036Z,80.36
2023-09-12T08:07:18.298Z,81.35
2023-09-12T08:08:20.153Z,82.16
2023-09-12T08:09:22.012Z,82.32
2023-09-12T08:10:24.146Z,82.07
2023-09-12T08:11:25.952Z,82.64
2023-09-12T08:12:28.551Z,82.51
2023-09-12T08:13:30.960Z,82.71
2023-09-12T08:14:32.790Z,82.32
2023-09-12T08:15:34.687Z,81.94
2023-09-12T08:16:36.443Z,81.80
2023-09-12T08:17:39.941Z,82.30
2023-09-12T08:18:41.872Z,81.72
2023-09-12T08:19:43.807Z,81.88
2023-09-12T08:20:46.167Z,80.10
2023-09-12T08:21:48.014Z,80.00
2023-09-12T08:22:50.357Z,80.40
2023-09-12T08:23:52.108Z,80.67
2023-09-12T08:24:53.976Z,79.21
2023-09-12T08:25:55.855Z,77.29
2023-09-12T08:26:57.633Z,78.49
2023-09-12T08:27:59.569Z,78.32
2023-09-12T08:29:01.349Z,79.03
2023-09-12T08:30:03.825Z,78.18
2023-09-12T08:31:05.653Z,77.88
2023-09-12T08:32:07.467Z,77.84
2023-09-12T08:33:09.497Z,78.02
2023-09-12T08:34:11.385Z,77.10
2023-09-12T08:35:14.064Z,78.31
2023-09-12T08:36:15.822Z,78.85
2023-09-12T08:37:17.624Z,78.72
2023-09-12T08:38:19.302Z,78.33
2023-09-12T08:39:29.218Z,76.90
2023-09-12T08:40:31.742Z,76.38
2023-09-12T08:41:34.396Z,76.86
2023-09-12T08:42:43.830Z,77.25
2023-09-12T08:43:46.644Z,75.81
2023-09-12T08:44:48.427Z,75.33
2023-09-12T08:45:50.462Z,75.45
2023-09-12T08:46:52.405Z,74.68
2023-09-12T08:47:55.431Z,75.11
2023-09-12T08:49:00.345Z,75.87
2023-09-12T08:50:03.576Z,76.04
2023-09-12T08:51:05.799Z,75.33
2023-09-12T08:52:09.660Z,73.27
2023-09-12T08:53:12.066Z,73.73
2023-09-12T08:54:14.552Z,73.32
2023-09-12T08:55:16.312Z,73.59
2023-09-12T08:56:19.026Z,73.93
2023-09-12T08:57:21.178Z,74.52
2023-09-12T08:58:24.060Z,74.73
2023-09-12T08:59:26.101Z,75.71
2023-09-12T09:00:31.802Z,76.47
2023-09-12T09:01:35.298Z,75.90
2023-09-12T09:02:39.473Z,75.86
2023-09-12T09:03:43.226Z,75.43
2023-09-12T09:04:48.479Z,75.27
2023-09-12T09:05:52.869Z,75.17
2023-09-12T09:06:56.129Z,75.19
2023-09-12T09:07:58.569Z,74.99
2023-09-12T09:09:01.317Z,75.01
2023-09-12T09:10:06.429Z,73.34
2023-09-12T09:11:08.724Z,73.66
2023-09-12T09:12:12.042Z,74.61
2023-09-12T09:13:14.525Z,74.53
2023-09-12T09:14:16.288Z,74.68
2023-09-12T09:15:28.589Z,74.68
2023-09-12T09:16:31.188Z,74.30
2023-09-12T09:17:36.125Z,74.31
2023-09-12T09:18:51.066Z,74.42
2023-09-12T09:19:52.938Z,73.96
2023-09-12T09:20:54.672Z,73.83
2023-09-12T09:22:06.213Z,74.00
2023-09-12T09:23:11.722Z,73.62
2023-09-12T09:24:17.171Z,73.74
2023-09-12T09:25:19.429Z,73.65
2023-09-12T09:26:21.522Z,73.60
2023-09-12T09:27:36.394Z,73.31
2023-09-12T09:28:38.331Z,73.15
2023-09-12T09:29:49.609Z,73.37
2023-09-12T09:30:53.242Z,72.78
2023-09-12T09:31:55.415Z,72.81
2023-09-12T09:32:57.724Z,72.33
2023-09-12T09:33:59.862Z,71.50
2023-09-12T09:35:01.714Z,70.83
2023-09-12T09:36:06.973Z,68.55
2023-09-12T09:37:08.837Z,69.22
2023-09-12T09:38:11.116Z,68.54
2023-09-12T09:39:13.982Z,69.13
2023-09-12T09:40:15.839Z,69.99
2023-09-12T09:41:21.078Z,70.94
2023-09-12T09:42:22.783Z,70.70
2023-09-12T09:43:26.513Z,70.92
2023-09-12T09:44:29.441Z,71.62
2023-09-12T09:45:31.966Z,71.23
2023-09-12T09:46:34.626Z,70.77
2023-09-12T09:47:36.458Z,70.52
2023-09-12T09:48:38.373Z,70.12
2023-09-12T09:49:40.177Z,69.51
2023-09-12T09:50:41.929Z,69.04
2023-09-12T09:51:46.814Z,68.84
2023-09-12T09:52:54.265Z,68.85
2023-09-12T09:53:59.458Z,68.97
2023-09-12T09:55:02.284Z,69.09
2023-09-12T09:56:12.018Z,68.99
2023-09-12T09:57:13.732Z,67.57
2023-09-12T09:58:18.207Z,68.17
2023-09-12T09:59:22.025Z,67.86
2023-09-12T10:00:23.904Z,68.16
2023-09-12T10:01:29.769Z,66.70
2023-09-12T10:02:31.741Z,67.03
2023-09-12T10:03:36.859Z,66.23
2023-09-12T10:05:44.943Z,67.70
2023-09-12T10:06:47.737Z,66.51
2023-09-12T10:07:54.842Z,67.32
2023-09-12T10:08:57.461Z,66.86
2023-09-12T10:10:01.103Z,66.33
2023-09-12T10:11:06.013Z,65.00
2023-09-12T10:12:08.168Z,65.84
2023-09-12T10:13:10.631Z,65.51
2023-09-12T10:14:12.969Z,65.90
2023-09-12T10:15:17.223Z,64.76
2023-09-12T10:16:19.552Z,64.35
2023-09-12T10:17:26.535Z,64.77
2023-09-12T10:18:30.705Z,64.44
2023-09-12T10:19:58.883Z,64.51
2023-09-12T10:21:06.010Z,63.89
2023-09-12T10:22:18.819Z,63.77
2023-09-12T10:23:38.333Z,63.96
2023-09-12T10:24:40.870Z,64.52
2023-09-12T10:25:44.328Z,64.26
2023-09-12T10:26:46.627Z,61.76
2023-09-12T10:27:50.294Z,62.93
2023-09-12T10:28:53.140Z,64.29
2023-09-12T10:29:55.257Z,61.73
2023-09-12T10:30:59.102Z,62.53
2023-09-12T10:32:01.519Z,62.74
2023-09-12T10:33:04.790Z,63.17
2023-09-12T10:34:10.574Z,62.56
2023-09-12T10:35:12.455Z,62.35
2023-09-12T10:36:15.617Z,61.16
2023-09-12T10:37:18.266Z,61.87
2023-09-12T10:38:22.173Z,61.40
2023-09-12T10:39:24.080Z,61.20
2023-09-12T10:40:27.050Z,61.14
2023-09-12T10:41:29.433Z,61.67
2023-09-12T10:42:31.931Z,61.05
2023-09-12T10:43:37.008Z,60.92
2023-09-12T10:44:38.816Z,62.03
2023-09-12T10:45:41.192Z,60.91
2023-09-12T10:46:44.751Z,60.53
2023-09-12T10:47:46.652Z,60.56
2023-09-12T10:48:48.781Z,60.00
2023-09-12T10:49:51.817Z,60.27
2023-09-12T10:50:53.639Z,59.13
2023-09-12T10:51:55.526Z,59.93
2023-09-12T10:53:08.991Z,58.10
2023-09-12T10:54:14.524Z,58.15
2023-09-12T10:55:19.788Z,57.34
2023-09-12T10:56:22.567Z,57.68
2023-09-12T10:57:24.626Z,56.22
2023-09-12T10:58:26.477Z,56.46
2023-09-12T10:59:32.877Z,58.01
2023-09-12T11:00:35.702Z,57.21
2023-09-12T11:01:38.890Z,57.33
2023-09-12T11:02:42.586Z,58.36
2023-09-12T11:03:44.769Z,56.10
2023-09-12T11:04:47.124Z,53.95
2023-09-12T11:05:53.930Z,57.15
2023-09-12T11:06:57.062Z,56.86
2023-09-12T11:07:59.968Z,54.74
2023-09-12T11:09:21.196Z,55.15
2023-09-12T11:10:24.224Z,56.61
2023-09-12T11:11:25.990Z,54.68
2023-09-12T11:12:37.350Z,56.65
2023-09-12T11:13:43.242Z,54.18
2023-09-12T11:15:06.966Z,52.09
2023-09-12T11:16:13.338Z,55.11
2023-09-12T11:17:21.796Z,55.54
2023-09-12T11:18:23.638Z,54.53
2023-09-12T11:19:25.493Z,55.40
2023-09-12T11:20:27.334Z,54.42
2023-09-12T11:21:35.230Z,54.65
2023-09-12T11:22:43.239Z,54.27
2023-09-12T11:23:55.064Z,52.04
2023-09-12T11:24:57.784Z,53.21
2023-09-12T11:26:09.080Z,53.14
2023-09-12T11:27:11.745Z,51.29
2023-09-12T11:28:13.681Z,51.65
2023-09-12T11:29:15.480Z,51.76
2023-09-12T11:30:17.800Z,51.84
2023-09-12T11:31:27.150Z,52.60
2023-09-12T11:32:32.309Z,52.77
2023-09-12T11:33:34.512Z,53.63
2023-09-12T11:34:42.426Z,52.99
2023-09-12T11:35:45.029Z,53.92
2023-09-12T11:36:47.499Z,51.03
2023-09-12T11:37:54.382Z,49.98
2023-09-12T11:39:03.501Z,51.66
2023-09-12T11:40:14.156Z,50.09
2023-09-12T11:41:36.293Z,50.71
2023-09-12T11:42:40.814Z,50.95
2023-09-12T11:43:43.174Z,50.76
2023-09-12T11:44:48.231Z,51.63
2023-09-12T11:45:50.690Z,50.29
2023-09-12T11:46:53.619Z,52.05
2023-09-12T11:47:55.528Z,49.30
2023-09-12T11:48:58.144Z,51.98
2023-09-12T11:49:59.923Z,49.52
2023-09-12T11:51:02.981Z,51.87
2023-09-12T11:52:06.177Z,50.83
2023-09-12T11:53:08.298Z,48.66
2023-09-12T11:54:10.206Z,49.27
2023-09-12T11:55:11.964Z,49.42
2023-09-12T11:56:14.376Z,51.44
2023-09-12T11:57:16.840Z,50.06
2023-09-12T11:58:19.399Z,48.28
2023-09-12T11:59:22.713Z,49.05
2023-09-12T12:00:26.915Z,49.04
2023-09-12T12:01:31.553Z,48.94
2023-09-12T12:02:33.609Z,48.04
2023-09-12T12:03:35.690Z,48.01
2023-09-12T12:04:38.049Z,50.01
2023-09-12T12:05:42.419Z,49.00
2023-09-12T12:06:45.300Z,49.91
2023-09-12T12:07:49.066Z,49.50
2023-09-12T12:08:55.982Z,47.45
2023-09-12T12:09:57.962Z,49.50
2023-09-12T12:11:00.783Z,50.09
2023-09-12T12:12:12.982Z,49.02
2023-09-12T12:13:18.629Z,47.39
2023-09-12T12:14:20.974Z,47.47
2023-09-12T12:15:23.314Z,49.75
2023-09-12T12:16:27.729Z,49.09
2023-09-12T12:17:29.844Z,49.49
2023-09-12T12:18:32.199Z,50.07
2023-09-12T12:19:33.985Z,50.66
2023-09-12T12:20:35.904Z,50.19
2023-09-12T12:21:37.798Z,48.34
2023-09-12T12:22:40.174Z,47.33
2023-09-12T12:23:42.514Z,49.89
2023-09-12T12:24:48.195Z,48.37
2023-09-12T12:25:50.748Z,47.22
2023-09-12T12:26:54.462Z,47.21
2023-09-12T12:27:56.443Z,48.93
2023-09-12T12:29:00.072Z,45.41
2023-09-12T12:30:02.362Z,45.70
2023-09-12T12:31:04.440Z,47.94
2023-09-12T12:32:07.014Z,49.17
2023-09-12T12:34:22.240Z,48.52
2023-09-12T12:35:38.097Z,48.50
2023-09-12T12:36:02.509Z,47.80
2023-09-12T12:37:05.064Z,45.74
2023-09-12T12:38:08.822Z,47.75
2023-09-12T12:39:14.376Z,47.32
2023-09-12T12:40:16.939Z,47.98
2023-09-12T12:41:32.040Z,46.24
2023-09-12T12:42:50.014Z,48.32
2023-09-12T12:44:02.986Z,49.93
2023-09-12T12:45:15.122Z,47.58
2023-09-12T12:46:17.051Z,48.44
2023-09-12T12:47:18.980Z,49.41
2023-09-12T12:48:30.358Z,48.93
2023-09-12T12:49:37.066Z,48.37
2023-09-12T12:50:39.968Z,47.75
2023-09-12T12:51:43.621Z,49.31
2023-09-12T12:52:47.530Z,47.88
2023-09-12T12:53:54.617Z,46.89
2023-09-12T12:55:04.428Z,48.27
2023-09-12T12:56:06.249Z,49.21
2023-09-12T12:57:13.693Z,49.31
2023-09-12T12:58:15.474Z,48.12
2023-09-12T12:59:17.371Z,48.64
2023-09-12T13:00:20.641Z,49.93
2023-09-12T13:01:23.129Z,48.78
2023-09-12T13:02:24.987Z,48.86
2023-09-12T13:03:26.902Z,49.36
2023-09-12T13:04:28.856Z,50.01
2023-09-12T13:05:32.138Z,49.67
2023-09-12T13:06:37.210Z,49.67
2023-09-12T13:07:39.399Z,50.82
2023-09-12T13:08:42.597Z,50.84
2023-09-12T13:09:44.493Z,50.92
2023-09-12T13:10:46.384Z,51.61
2023-09-12T13:11:48.256Z,51.26
2023-09-12T13:12:50.729Z,50.96
2023-09-12T13:13:53.307Z,51.33
2023-09-12T13:14:55.614Z,50.37
2023-09-12T13:15:57.790Z,51.18
2023-09-12T13:17:00.451Z,49.92
2023-09-12T13:18:02.379Z,50.59
2023-09-12T13:19:05.082Z,50.97
2023-09-12T13:20:09.730Z,49.52
2023-09-12T13:21:11.520Z,47.80
2023-09-12T13:22:13.296Z,50.06
2023-09-12T13:23:15.079Z,50.62
2023-09-12T13:24:16.900Z,50.97
2023-09-12T13:25:18.758Z,50.87
2023-09-12T13:26:20.494Z,51.33
2023-09-12T13:27:22.404Z,51.07
2023-09-12T13:28:27.682Z,51.75
2023-09-12T13:29:29.421Z,51.37
2023-09-12T13:30:31.214Z,51.37
2023-09-12T13:31:35.714Z,51.58
2023-09-12T13:32:37.671Z,52.18
2023-09-12T13:33:39.716Z,52.22
2023-09-12T13:34:41.597Z,52.83